Time;durP1;ratioP1;P1;durP2;ratioP2;P2;SDS_P1;SDS_P2;PMS_P1;PMS_P2;Temp;Humidity;BMP_temperature;BMP_pressure;BME280_temperature;BME280_humidity;BME280_pressure;Samples;Min_cycle;Max_cycle;Signal;HPM_P1;HPM_P2
2022/05/30 00:02:10;;;;;;;;;;;;;;;20.81;52.82;100537.31;4966970;28;4280;-59
2022/05/30 00:04:37;;;;;;;;;;;;;;;20.81;52.83;100537.31;4958009;28;4418;-59
2022/05/30 00:07:04;;;;;;;;;;;;;;;20.81;52.74;100528.66;4964511;28;4176;-59
2022/05/30 00:09:30;;;;;;;;;;;;;;;20.80;52.82;100530.81;4968624;28;4233;-59
2022/05/30 00:11:57;;;;;;;;;;;;;;;20.79;52.78;100532.19;4966998;28;6407;-59
2022/05/30 00:14:23;;;;;;;;;;;;;;;20.79;52.78;100523.56;4965550;28;4172;-59
2022/05/30 00:16:50;;;;;;;;;;;;;;;20.79;52.74;100532.19;4961147;28;4202;-59
2022/05/30 00:19:16;;;;;;;;;;;;;;;20.79;52.85;100535.06;4963284;28;4233;-59
2022/05/30 00:21:44;;;;;;;;;;;;;;;20.79;52.82;100534.34;4965346;28;4236;-59
2022/05/30 00:24:10;;;;;;;;;;;;;;;20.79;52.78;100535.06;4966766;28;4338;-59
2022/05/30 00:26:37;;;;;;;;;;;;;;;20.78;52.90;100527.84;4966857;28;5314;-58
2022/05/30 00:29:03;;;;;;;;;;;;;;;20.77;52.80;100526.38;4959553;28;4220;-59
2022/05/30 00:31:30;;;;;;;;;;;;;;;20.77;52.81;100532.13;4966489;28;4238;-59
2022/05/30 00:33:56;;;;;;;;;;;;;;;20.77;52.78;100531.38;4960175;28;4033;-59
2022/05/30 00:36:23;;;;;;;;;;;;;;;20.76;52.76;100536.41;4960384;28;4203;-59
2022/05/30 00:38:49;;;;;;;;;;;;;;;20.77;52.72;100537.13;4967662;28;4194;-59
2022/05/30 00:41:15;;;;;;;;;;;;;;;20.76;52.80;100542.16;4965036;28;4212;-59
2022/05/30 00:43:44;;;;;;;;;;;;;;;20.76;52.79;100536.41;4965093;28;4111;-59
2022/05/30 00:46:12;;;;;;;;;;;;;;;20.76;52.78;100542.16;4965592;28;5363;-59
2022/05/30 00:48:41;;;;;;;;;;;;;;;20.75;52.83;100534.91;4963242;28;4520;-59
2022/05/30 00:51:08;;;;;;;;;;;;;;;20.75;52.85;100539.94;4964967;28;5422;-59
2022/05/30 00:53:35;;;;;;;;;;;;;;;20.74;52.94;100535.59;4964304;28;4008;-59
2022/05/30 00:56:02;;;;;;;;;;;;;;;20.73;52.81;100537.72;4964630;28;4507;-59
2022/05/30 00:58:29;;;;;;;;;;;;;;;20.73;52.86;100549.25;4965617;28;4681;-59
2022/05/30 01:00:55;;;;;;;;;;;;;;;20.73;52.77;100540.59;4961619;28;4345;-59
2022/05/30 01:08:52;;;;;;;;;;;;;;;20.72;52.85;100547.75;4958157;28;4185;-59
2022/05/30 01:11:19;;;;;;;;;;;;;;;20.71;52.94;100549.91;4958663;28;5264;-60
2022/05/30 01:13:45;;;;;;;;;;;;;;;20.71;52.92;100552.78;4965835;28;4282;-59
2022/05/30 01:16:12;;;;;;;;;;;;;;;20.71;53.00;100541.25;4962368;28;4613;-59
2022/05/30 01:18:41;;;;;;;;;;;;;;;20.70;52.88;100545.53;4959160;28;5521;-58
2022/05/30 01:21:26;;;;;;;;;;;;;;;20.70;52.95;100545.53;4963950;28;4233;-59
2022/05/30 01:24:00;;;;;;;;;;;;;;;20.70;52.99;100541.91;4959306;28;4432;-59
2022/05/30 01:26:48;;;;;;;;;;;;;;;20.70;52.90;100533.28;4957931;28;4229;-59
2022/05/30 01:29:20;;;;;;;;;;;;;;;20.69;52.81;100537.56;4954840;28;4280;-59
2022/05/30 01:31:48;;;;;;;;;;;;;;;20.70;52.94;100547.66;4953679;28;5714;-59
2022/05/30 01:34:14;;;;;;;;;;;;;;;20.70;52.86;100536.16;4953515;28;5422;-58
2022/05/30 01:36:40;;;;;;;;;;;;;;;20.69;52.86;100543.31;4978192;28;4210;-59
2022/05/30 01:39:08;;;;;;;;;;;;;;;20.69;53.00;100537.56;4950783;28;4268;-59
2022/05/30 01:41:43;;;;;;;;;;;;;;;20.69;53.01;100546.19;4957390;28;4344;-59
2022/05/30 01:44:11;;;;;;;;;;;;;;;20.69;52.96;100549.06;4975750;28;5357;-59
2022/05/30 01:46:37;;;;;;;;;;;;;;;20.67;52.93;100541.09;4961421;28;5367;-58
2022/05/30 01:49:04;;;;;;;;;;;;;;;20.67;52.91;100549.00;4965461;28;4314;-58
2022/05/30 01:51:30;;;;;;;;;;;;;;;20.67;52.98;100543.25;4968961;28;4388;-59
2022/05/30 01:54:01;;;;;;;;;;;;;;;20.67;52.99;100546.13;4959934;28;4233;-59
2022/05/30 01:56:33;;;;;;;;;;;;;;;20.66;52.98;100541.75;4959421;28;4301;-58
2022/05/30 01:59:00;;;;;;;;;;;;;;;20.66;52.95;100547.50;4957910;28;4207;-59
2022/05/30 02:02:02;;;;;;;;;;;;;;;20.66;52.92;100553.25;4960033;28;4269;-59
2022/05/30 02:04:28;;;;;;;;;;;;;;;20.66;52.98;100550.38;4973202;28;4218;-59
2022/05/30 02:06:55;;;;;;;;;;;;;;;20.66;53.02;100544.63;4959209;28;5575;-59
2022/05/30 02:09:23;;;;;;;;;;;;;;;20.65;52.96;100543.16;4961450;28;5887;-59
2022/05/30 02:11:49;;;;;;;;;;;;;;;20.65;52.93;100537.41;4946184;28;5534;-59
2022/05/30 02:14:35;;;;;;;;;;;;;;;20.65;53.00;100537.41;4950508;28;4276;-59
2022/05/30 02:17:02;;;;;;;;;;;;;;;20.64;52.99;100539.53;4961141;28;4277;-59
2022/05/30 02:19:31;;;;;;;;;;;;;;;20.64;53.03;100538.81;4960875;28;4078;-59
2022/05/30 02:22:01;;;;;;;;;;;;;;;20.64;53.00;100551.06;4974608;28;5465;-59
2022/05/30 02:24:27;;;;;;;;;;;;;;;20.64;53.03;100553.19;4961707;28;4480;-59
2022/05/30 02:26:53;;;;;;;;;;;;;;;20.65;52.95;100546.03;4957962;28;4239;-59
2022/05/30 02:29:20;;;;;;;;;;;;;;;20.64;53.03;100547.44;4962149;28;4122;-59
2022/05/30 02:31:58;;;;;;;;;;;;;;;20.65;52.94;100548.91;4960786;28;4184;-59
2022/05/30 02:37:09;;;;;;;;;;;;;;;20.63;53.01;100548.81;4958929;28;5472;-59
2022/05/30 02:39:38;;;;;;;;;;;;;;;20.63;53.06;100551.69;4955349;28;4056;-59
2022/05/30 02:42:23;;;;;;;;;;;;;;;20.61;52.97;100549.47;4964711;28;4382;-59
2022/05/30 02:44:49;;;;;;;;;;;;;;;20.62;52.92;100548.09;4961531;28;4200;-58
2022/05/30 02:47:17;;;;;;;;;;;;;;;20.63;53.01;100557.44;4962205;28;4172;-59
2022/05/30 02:49:50;;;;;;;;;;;;;;;20.62;53.00;100555.97;4955658;28;4181;-59
2022/05/30 02:52:16;;;;;;;;;;;;;;;20.62;52.97;100555.97;4958132;28;4166;-59
2022/05/30 02:54:42;;;;;;;;;;;;;;;20.61;52.88;100549.47;4977524;28;4435;-58
2022/05/30 02:57:13;;;;;;;;;;;;;;;20.62;52.95;100555.97;4957481;28;4241;-58
2022/05/30 02:59:41;;;;;;;;;;;;;;;20.60;53.04;100558.78;4949004;28;5551;-60
2022/05/30 03:02:08;;;;;;;;;;;;;;;20.62;52.81;100555.97;4954161;28;3997;-59
2022/05/30 03:04:35;;;;;;;;;;;;;;;20.59;52.99;100560.91;4955080;28;3982;-59
2022/05/30 03:07:05;;;;;;;;;;;;;;;20.59;53.04;100558.03;4960169;28;4073;-59
2022/05/30 03:09:31;;;;;;;;;;;;;;;20.58;53.11;100561.56;4958989;28;4535;-59
2022/05/30 03:12:20;;;;;;;;;;;;;;;20.59;53.04;100563.03;4955777;28;4218;-59
2022/05/30 03:14:50;;;;;;;;;;;;;;;20.57;53.11;100560.84;4969146;28;5433;-59
2022/05/30 03:17:16;;;;;;;;;;;;;;;20.58;53.06;100562.31;4982450;28;4595;-59
2022/05/30 03:19:52;;;;;;;;;;;;;;;20.59;52.95;100560.91;4976652;28;4479;-59
2022/05/30 03:22:20;;;;;;;;;;;;;;;20.59;52.91;100563.03;4966017;28;4893;-59
2022/05/30 03:25:12;;;;;;;;;;;;;;;20.58;52.95;100562.31;4968127;28;5169;-58
2022/05/30 03:27:38;;;;;;;;;;;;;;;20.58;53.11;100568.06;4961031;28;4257;-60
2022/05/30 03:30:05;;;;;;;;;;;;;;;20.58;53.04;100573.06;4958783;28;4267;-59
2022/05/30 03:32:31;;;;;;;;;;;;;;;20.58;53.04;100567.31;4954229;28;5270;-59
2022/05/30 03:34:58;;;;;;;;;;;;;;;20.59;52.93;100568.78;4963821;28;4206;-59
2022/05/30 03:37:25;;;;;;;;;;;;;;;20.58;52.96;100573.81;4950511;28;5311;-59
2022/05/30 03:40:05;;;;;;;;;;;;;;;20.57;53.03;100574.47;4961778;28;6559;-59
2022/05/30 03:42:50;;;;;;;;;;;;;;;20.57;53.02;100577.34;4966630;28;4105;-59
2022/05/30 03:45:21;;;;;;;;;;;;;;;20.57;53.05;100574.47;4977964;28;4087;-59
2022/05/30 03:47:47;;;;;;;;;;;;;;;20.57;52.98;100574.47;4974664;28;5089;-59
2022/05/30 03:50:16;;;;;;;;;;;;;;;20.57;53.03;100572.34;4977550;28;4080;-59
2022/05/30 03:52:42;;;;;;;;;;;;;;;20.56;53.03;100570.09;4965369;28;4048;-58
2022/05/30 03:55:12;;;;;;;;;;;;;;;20.57;52.94;100577.34;4960836;28;4148;-59
2022/05/30 03:57:42;;;;;;;;;;;;;;;20.56;53.10;100575.84;4963806;28;4342;-59
2022/05/30 04:00:09;;;;;;;;;;;;;;;20.56;53.07;100581.59;4973253;28;4182;-59
2022/05/30 04:02:40;;;;;;;;;;;;;;;20.56;52.99;100576.59;4965739;28;4214;-59
2022/05/30 04:05:09;;;;;;;;;;;;;;;20.56;53.01;100584.47;4978209;28;4155;-58
2022/05/30 04:07:35;;;;;;;;;;;;;;;20.56;52.93;100581.59;4960373;28;4207;-58
2022/05/30 04:10:28;;;;;;;;;;;;;;;20.55;52.98;100580.84;4940913;28;4201;-59
2022/05/30 04:13:13;;;;;;;;;;;;;;;20.56;52.83;100590.22;4965533;28;4133;-59
2022/05/30 04:15:58;;;;;;;;;;;;;;;20.55;52.89;100591.59;4965352;28;4149;-59
2022/05/30 04:18:30;;;;;;;;;;;;;;;20.56;52.86;100593.09;4961620;28;4189;-58
2022/05/30 04:20:56;;;;;;;;;;;;;;;20.55;53.07;100589.50;4960503;28;4329;-59
2022/05/30 04:23:22;;;;;;;;;;;;;;;20.54;52.82;100593.00;4949551;28;4371;-59
2022/05/30 04:25:55;;;;;;;;;;;;;;;20.56;52.91;100596.72;4951659;28;5509;-58
2022/05/30 04:28:22;;;;;;;;;;;;;;;20.57;52.75;100597.47;4956887;28;4201;-59
2022/05/30 04:31:07;;;;;;;;;;;;;;;20.58;52.92;100602.56;4946859;28;4231;-61
2022/05/30 04:33:33;;;;;;;;;;;;;;;20.54;53.04;100601.63;4977036;28;4248;-61
2022/05/30 04:36:02;;;;;;;;;;;;;;;20.57;53.26;100600.34;4953602;28;4110;-59
2022/05/30 04:38:29;;;;;;;;;;;;;;;20.58;53.02;100608.31;4957543;28;4065;-69
2022/05/30 04:41:14;;;;;;;;;;;;;;;20.59;53.06;100603.31;4957705;28;4305;-69
2022/05/30 04:44:04;;;;;;;;;;;;;;;20.55;52.97;100608.84;4956085;28;4435;-68
2022/05/30 04:46:56;;;;;;;;;;;;;;;20.54;52.86;100595.88;4964630;28;4537;-68
2022/05/30 04:49:22;;;;;;;;;;;;;;;20.54;52.93;100599.50;4962455;28;4239;-69
2022/05/30 04:51:49;;;;;;;;;;;;;;;20.53;52.93;100600.91;4959504;28;5403;-69
2022/05/30 04:54:15;;;;;;;;;;;;;;;20.53;52.84;100597.28;4976915;28;4244;-68
2022/05/30 04:57:08;;;;;;;;;;;;;;;20.53;52.86;100597.28;4955670;28;5356;-68
2022/05/30 04:59:42;;;;;;;;;;;;;;;20.51;52.95;100598.69;4964799;28;4160;-68
2022/05/30 05:02:12;;;;;;;;;;;;;;;20.51;52.98;100595.81;4957663;28;4186;-67
2022/05/30 05:04:46;;;;;;;;;;;;;;;20.50;53.00;100605.84;4960056;28;4289;-68
2022/05/30 05:07:12;;;;;;;;;;;;;;;20.50;53.10;100605.06;4979837;28;4185;-68
2022/05/30 05:09:52;;;;;;;;;;;;;;;20.49;53.06;100610.09;4961474;28;5321;-68
2022/05/30 05:12:37;;;;;;;;;;;;;;;20.49;53.31;100606.47;4963141;28;4221;-68
2022/05/30 05:15:09;;;;;;;;;;;;;;;20.50;53.24;100613.69;4966821;28;4186;-68
2022/05/30 05:18:03;;;;;;;;;;;;;;;20.50;53.20;100622.34;4953902;28;4265;-68
2022/05/30 05:20:34;;;;;;;;;;;;;;;20.50;53.15;100620.22;4981774;28;4239;-68
2022/05/30 05:23:01;;;;;;;;;;;;;;;20.51;53.13;100621.69;4974372;28;4310;-68
2022/05/30 05:25:47;;;;;;;;;;;;;;;20.50;52.99;100623.09;4963875;28;4035;-67
2022/05/30 05:28:28;;;;;;;;;;;;;;;20.51;53.00;100618.06;4958580;28;4075;-67
2022/05/30 05:30:55;;;;;;;;;;;;;;;20.50;52.92;100625.97;4975997;28;6326;-68
2022/05/30 05:33:23;;;;;;;;;;;;;;;20.49;52.97;100618.72;4975144;28;4126;-69
2022/05/30 05:35:49;;;;;;;;;;;;;;;20.51;53.03;100626.72;4961484;28;4181;-68
2022/05/30 05:38:16;;;;;;;;;;;;;;;20.49;53.88;100627.34;4979851;28;4178;-67
2022/05/30 05:40:58;;;;;;;;;;;;;;;20.47;54.50;100624.38;4963437;28;4090;-70
2022/05/30 05:43:33;;;;;;;;;;;;;;;20.47;54.37;100633.00;4958640;28;4187;-67
2022/05/30 05:46:00;;;;;;;;;;;;;;;20.45;54.36;100627.16;4963611;28;4202;-69
2022/05/30 05:48:26;;;;;;;;;;;;;;;20.46;54.30;100630.81;4957237;28;4160;-67
2022/05/30 05:50:53;;;;;;;;;;;;;;;20.49;54.20;100638.13;4953754;28;5481;-72
2022/05/30 05:53:20;;;;;;;;;;;;;;;20.47;54.23;100629.41;4969373;28;4299;-68
2022/05/30 05:55:47;;;;;;;;;;;;;;;20.48;54.03;100633.78;4960339;28;4201;-69
2022/05/30 05:58:13;;;;;;;;;;;;;;;20.48;53.90;100636.66;4965438;28;5252;-69
2022/05/30 06:00:42;;;;;;;;;;;;;;;20.48;54.08;100637.38;4960383;28;4127;-69
2022/05/30 06:03:09;;;;;;;;;;;;;;;20.48;54.04;100628.75;4957148;28;5822;-70
2022/05/30 06:05:55;;;;;;;;;;;;;;;20.47;53.98;100633.00;4965861;28;4203;-70
2022/05/30 06:08:41;;;;;;;;;;;;;;;20.48;53.97;100640.25;4963637;28;5659;-70
2022/05/30 06:11:34;;;;;;;;;;;;;;;20.48;53.87;100637.38;4979619;28;4271;-70
2022/05/30 06:14:02;;;;;;;;;;;;;;;20.48;54.01;100633.78;4977997;28;4194;-70
2022/05/30 06:16:29;;;;;;;;;;;;;;;20.48;53.91;100631.63;4978681;28;5411;-70
2022/05/30 06:18:57;;;;;;;;;;;;;;;20.47;53.83;100627.25;4962034;28;4177;-71
2022/05/30 06:21:24;;;;;;;;;;;;;;;20.46;53.98;100631.53;4963421;28;5366;-70
2022/05/30 06:23:55;;;;;;;;;;;;;;;20.44;53.98;100640.09;4962954;28;5267;-70
2022/05/30 06:26:40;;;;;;;;;;;;;;;20.46;53.90;100642.31;4961931;28;4200;-71
2022/05/30 06:29:29;;;;;;;;;;;;;;;20.46;53.54;100631.53;4966917;28;5311;-71
2022/05/30 06:31:57;;;;;;;;;;;;;;;20.43;53.84;100638.63;4962012;28;4123;-63
2022/05/30 06:34:24;;;;;;;;;;;;;;;20.37;53.51;100649.84;4962058;28;4156;-73
2022/05/30 06:36:51;;;;;;;;;;;;;;;20.41;53.39;100649.28;4961402;28;4403;-73
2022/05/30 06:39:17;;;;;;;;;;;;;;;20.42;53.30;100640.00;4964749;28;5322;-72
2022/05/30 06:41:56;;;;;;;;;;;;;;;20.44;53.12;100650.84;4959500;28;4337;-74
2022/05/30 06:44:24;;;;;;;;;;;;;;;20.45;53.13;100647.31;4968234;28;4398;-73
2022/05/30 06:47:09;;;;;;;;;;;;;;;20.45;53.01;100647.31;4966659;28;4316;-74
2022/05/30 06:49:54;;;;;;;;;;;;;;;20.45;52.97;100655.94;4967433;28;4570;-74
2022/05/30 06:52:24;;;;;;;;;;;;;;;20.45;52.93;100650.19;4967754;28;4201;-74
2022/05/30 06:54:51;;;;;;;;;;;;;;;20.45;52.80;100653.06;4962467;28;4228;-74
2022/05/30 07:00:03;;;;;;;;;;;;;;;20.45;52.74;100652.31;4967888;28;4132;-74
2022/05/30 07:02:30;;;;;;;;;;;;;;;20.45;52.67;100650.19;4967952;28;4278;-74
2022/05/30 07:05:19;;;;;;;;;;;;;;;20.45;52.58;100650.19;4968097;28;4351;-72
2022/05/30 07:08:23;;;;;;;;;;;;;;;20.46;52.70;100656.69;4964995;28;5265;-74
2022/05/30 07:11:10;;;;;;;;;;;;;;;20.45;52.69;100658.81;4968285;28;5458;-72
2022/05/30 07:13:37;;;;;;;;;;;;;;;20.45;52.61;100658.81;4966951;28;4310;-76
2022/05/30 07:16:04;;;;;;;;;;;;;;;20.45;52.52;100661.69;4967927;28;4234;-75
2022/05/30 07:18:30;;;;;;;;;;;;;;;20.45;52.52;100658.81;4966884;28;4092;-75
2022/05/30 07:20:58;;;;;;;;;;;;;;;20.45;52.54;100661.69;4966156;28;4548;-77
2022/05/30 07:23:27;;;;;;;;;;;;;;;20.45;52.75;100655.94;4969479;28;6319;-77
2022/05/30 07:26:13;;;;;;;;;;;;;;;20.45;52.88;100658.81;4968281;28;5542;-78
2022/05/30 07:28:59;;;;;;;;;;;;;;;20.45;52.85;100664.56;4966882;28;5624;-78
2022/05/30 07:31:51;;;;;;;;;;;;;;;20.46;52.86;100671.06;4967716;28;5592;-78
2022/05/30 07:34:37;;;;;;;;;;;;;;;20.45;52.88;100672.47;4968573;28;4171;-77
2022/05/30 07:37:22;;;;;;;;;;;;;;;20.45;52.83;100670.31;4968496;28;5614;-78
2022/05/30 07:39:55;;;;;;;;;;;;;;;20.45;52.76;100670.31;4958957;28;4125;-77
2022/05/30 07:42:34;;;;;;;;;;;;;;;20.46;52.96;100668.19;4967465;28;4141;-77
2022/05/30 07:45:09;;;;;;;;;;;;;;;20.46;52.82;100665.31;4959881;28;4181;-77
2022/05/30 07:47:56;;;;;;;;;;;;;;;20.46;52.82;100671.81;4956312;28;6003;-78
2022/05/30 07:50:54;;;;;;;;;;;;;;;20.46;52.81;100682.59;4981674;28;4078;-77
2022/05/30 07:53:24;;;;;;;;;;;;;;;20.46;52.78;100676.84;4981735;28;4137;-78
2022/05/30 07:55:59;;;;;;;;;;;;;;;20.46;52.89;100677.56;4963736;28;5768;-76
2022/05/30 07:58:26;;;;;;;;;;;;;;;20.47;52.78;100684.06;4967367;28;5688;-77
2022/05/30 08:00:52;;;;;;;;;;;;;;;20.46;52.78;100683.31;4966240;28;5459;-76
2022/05/30 08:03:25;;;;;;;;;;;;;;;20.47;52.71;100690.53;4982691;28;4123;-77
2022/05/30 08:06:14;;;;;;;;;;;;;;;20.46;52.70;100691.94;4968199;28;4138;-76
2022/05/30 08:09:01;;;;;;;;;;;;;;;20.46;52.73;100694.09;4966852;28;4143;-76
2022/05/30 08:11:27;;;;;;;;;;;;;;;20.46;52.58;100694.81;4965461;28;4222;-76
2022/05/30 08:14:03;;;;;;;;;;;;;;;20.46;52.69;100696.97;4960813;28;4526;-77
2022/05/30 08:16:30;;;;;;;;;;;;;;;20.45;52.60;100696.19;4966598;28;4685;-76
2022/05/30 08:19:17;;;;;;;;;;;;;;;20.46;52.48;100700.56;4965533;28;4224;-77
2022/05/30 08:22:03;;;;;;;;;;;;;;;20.45;52.45;100701.97;4967624;28;5526;-77
2022/05/30 08:24:34;;;;;;;;;;;;;;;20.45;52.39;100704.84;4965759;28;4262;-77
2022/05/30 08:27:04;;;;;;;;;;;;;;;20.45;52.29;100710.59;4959850;28;6351;-77
2022/05/30 08:29:42;;;;;;;;;;;;;;;20.45;52.38;100715.59;4966290;28;4610;-76
2022/05/30 08:32:09;;;;;;;;;;;;;;;20.44;52.20;100720.63;4965658;28;5071;-77
2022/05/30 08:34:54;;;;;;;;;;;;;;;20.44;52.25;100709.13;4966317;28;4124;-77
2022/05/30 08:37:22;;;;;;;;;;;;;;;20.44;52.20;100714.13;4956842;28;5466;-77
2022/05/30 08:42:34;;;;;;;;;;;;;;;20.44;52.09;100714.13;4975194;28;4453;-72
2022/05/30 08:45:03;;;;;;;;;;;;;;;20.44;52.04;100717.00;4978897;28;5359;-77
2022/05/30 08:48:01;;;;;;;;;;;;;;;20.44;52.01;100709.13;4943760;28;4178;-77
2022/05/30 08:50:44;;;;;;;;;;;;;;;20.44;51.96;100709.13;4965625;28;4173;-77
2022/05/30 08:53:17;;;;;;;;;;;;;;;20.43;52.02;100707.66;4965183;28;4068;-77
2022/05/30 08:56:02;;;;;;;;;;;;;;;20.45;51.89;100710.59;4964917;28;4181;-76
2022/05/30 08:59:25;;;;;;;;;;;;;;;20.44;51.97;100709.13;4964563;28;4143;-76
2022/05/30 09:01:57;;;;;;;;;;;;;;;20.44;51.80;100709.13;4965887;28;4093;-77
2022/05/30 09:04:56;;;;;;;;;;;;;;;20.45;51.90;100716.34;4944765;28;4230;-77
2022/05/30 09:07:25;;;;;;;;;;;;;;;20.44;51.82;100708.38;4944310;28;4183;-77
2022/05/30 09:09:52;;;;;;;;;;;;;;;20.44;51.87;100709.13;4962800;28;4424;-77
2022/05/30 09:12:32;;;;;;;;;;;;;;;20.44;51.75;100709.13;4944327;28;4208;-77
2022/05/30 09:15:11;;;;;;;;;;;;;;;20.45;51.81;100716.34;4959637;28;4975;-77
2022/05/30 09:17:40;;;;;;;;;;;;;;;20.45;51.79;100704.09;4941524;28;4894;-77
2022/05/30 09:20:07;;;;;;;;;;;;;;;20.44;51.73;100700.47;4959299;28;5372;-77
2022/05/30 09:22:34;;;;;;;;;;;;;;;20.46;51.74;100699.84;4961883;28;4080;-77
2022/05/30 09:27:56;;;;;;;;;;;;;;;20.44;51.84;100694.72;4956709;28;4154;-76
2022/05/30 09:30:51;;;;;;;;;;;;;;;20.44;51.81;100700.47;4948244;28;4178;-76
2022/05/30 09:33:44;;;;;;;;;;;;;;;20.46;51.72;100694.09;4965602;28;4426;-75
2022/05/30 09:36:47;;;;;;;;;;;;;;;20.45;51.81;100699.06;4965783;28;4154;-76
2022/05/30 09:39:40;;;;;;;;;;;;;;;20.45;51.78;100695.47;4945692;28;4153;-76
2022/05/30 09:42:07;;;;;;;;;;;;;;;20.44;51.77;100696.88;4961611;28;4012;-77
2022/05/30 09:44:41;;;;;;;;;;;;;;;20.45;51.83;100704.84;4943340;28;4128;-77
2022/05/30 09:47:28;;;;;;;;;;;;;;;20.45;51.75;100690.44;4940377;28;4060;-76
2022/05/30 09:50:15;;;;;;;;;;;;;;;20.45;51.71;100696.19;4977955;28;4190;-76
2022/05/30 09:52:41;;;;;;;;;;;;;;;20.45;51.79;100687.56;4976249;28;4090;-69
2022/05/30 09:55:26;;;;;;;;;;;;;;;20.45;51.72;100693.31;4955014;28;4163;-71
2022/05/30 09:58:02;;;;;;;;;;;;;;;20.45;51.73;100689.72;4972543;28;3980;-77
2022/05/30 10:00:56;;;;;;;;;;;;;;;20.45;51.74;100693.31;4960737;28;4133;-76
2022/05/30 10:03:25;;;;;;;;;;;;;;;20.45;51.67;100707.69;4957416;28;4799;-76
2022/05/30 10:06:13;;;;;;;;;;;;;;;20.44;51.74;100703.34;4963162;28;4670;-76
2022/05/30 10:08:39;;;;;;;;;;;;;;;20.45;51.63;100704.84;4957717;28;4133;-77
2022/05/30 10:11:32;;;;;;;;;;;;;;;20.45;51.69;100699.06;4979713;28;3977;-76
2022/05/30 10:14:18;;;;;;;;;;;;;;;20.45;51.71;100701.97;4963757;28;4169;-73
2022/05/30 10:17:14;;;;;;;;;;;;;;;20.46;51.72;100696.97;4967062;28;5598;-76
2022/05/30 10:19:41;;;;;;;;;;;;;;;20.46;51.79;100691.94;4984486;28;4871;-75
2022/05/30 10:28:47;;;;;;;;;;;;;;;20.46;51.78;100691.94;4969533;28;4183;-76
2022/05/30 10:31:37;;;;;;;;;;;;;;;20.46;51.73;100700.56;4968697;28;5680;-75
2022/05/30 10:34:18;;;;;;;;;;;;;;;20.47;51.69;100699.16;4943066;28;4118;-75
2022/05/30 10:36:49;;;;;;;;;;;;;;;20.46;51.65;100694.09;4960968;28;4152;-75
2022/05/30 10:39:17;;;;;;;;;;;;;;;20.46;51.69;100700.56;4961493;28;4240;-75
2022/05/30 10:41:45;;;;;;;;;;;;;;;20.45;51.77;100692.59;4967068;28;4587;-74
2022/05/30 10:44:15;;;;;;;;;;;;;;;20.46;51.60;100694.81;4984576;28;4372;-76
2022/05/30 10:46:43;;;;;;;;;;;;;;;20.47;51.66;100696.28;4961398;28;5217;-74
2022/05/30 10:49:13;;;;;;;;;;;;;;;20.46;51.72;100689.06;4945326;28;4552;-74
2022/05/30 10:51:43;;;;;;;;;;;;;;;20.47;51.70;100699.16;4968796;28;3997;-74
2022/05/30 10:54:16;;;;;;;;;;;;;;;20.46;51.75;100694.81;4962137;28;4035;-75
2022/05/30 10:56:54;;;;;;;;;;;;;;;20.46;51.57;100700.56;4967575;28;6386;-75
2022/05/30 10:59:29;;;;;;;;;;;;;;;20.47;51.70;100702.03;4968003;28;4149;-75
2022/05/30 11:01:57;;;;;;;;;;;;;;;20.47;51.73;100704.19;4961117;28;5773;-75
2022/05/30 11:04:57;;;;;;;;;;;;;;;20.46;51.68;100703.44;4944994;28;4552;-75
2022/05/30 11:07:26;;;;;;;;;;;;;;;20.48;51.66;100697.06;4956279;28;5286;-75
2022/05/30 11:10:02;;;;;;;;;;;;;;;20.48;51.71;100703.53;4982821;28;4541;-74
2022/05/30 11:12:38;;;;;;;;;;;;;;;20.48;51.69;100703.53;4961490;28;4204;-74
2022/05/30 11:15:05;;;;;;;;;;;;;;;20.48;51.67;100697.06;4967440;28;4178;-75
2022/05/30 11:18:15;;;;;;;;;;;;;;;20.49;51.73;100696.38;4969764;28;4923;-75
2022/05/30 11:21:11;;;;;;;;;;;;;;;20.48;51.64;100705.69;4947968;28;5345;-75
2022/05/30 11:23:39;;;;;;;;;;;;;;;20.47;51.59;100702.03;4964785;28;4110;-70
2022/05/30 11:26:09;;;;;;;;;;;;;;;20.48;51.68;100706.41;4962584;28;4039;-75
2022/05/30 11:28:40;;;;;;;;;;;;;;;20.48;51.74;100720.81;4966760;28;4273;-69
2022/05/30 11:31:27;;;;;;;;;;;;;;;20.51;51.72;100724.50;4965482;28;4350;-68
2022/05/30 11:34:02;;;;;;;;;;;;;;;20.53;51.68;100715.22;4967377;28;4265;-68
2022/05/30 11:36:49;;;;;;;;;;;;;;;20.51;51.97;100713.72;4967427;28;4353;-58
2022/05/30 11:39:34;;;;;;;;;;;;;;;20.49;50.49;100727.28;4968062;28;5483;-59
2022/05/30 11:42:12;;;;;;;;;;;;;;;20.38;47.47;100717.47;4967949;28;4167;-58
2022/05/30 11:44:59;;;;;;;;;;;;;;;20.28;45.64;100717.03;4965125;28;4214;-67
2022/05/30 11:47:28;;;;;;;;;;;;;;;20.29;45.64;100704.13;4980725;28;4177;-68
2022/05/30 11:50:07;;;;;;;;;;;;;;;20.35;45.76;100707.28;4964590;28;4241;-68
2022/05/30 11:52:35;;;;;;;;;;;;;;;20.39;46.42;100706.72;4966460;28;5199;-69
2022/05/30 11:55:14;;;;;;;;;;;;;;;20.41;47.06;100704.69;4964755;28;4450;-67
2022/05/30 11:57:44;;;;;;;;;;;;;;;20.43;47.99;100707.66;4964175;28;4611;-67
2022/05/30 12:00:32;;;;;;;;;;;;;;;20.44;48.02;100703.34;4962173;28;4100;-67
2022/05/30 12:03:05;;;;;;;;;;;;;;;20.45;48.27;100704.84;4959957;28;4078;-64
2022/05/30 12:05:34;;;;;;;;;;;;;;;20.45;48.43;100713.47;4961150;28;4257;-66
2022/05/30 12:08:19;;;;;;;;;;;;;;;20.47;48.64;100704.19;4961184;28;4180;-67
2022/05/30 12:11:06;;;;;;;;;;;;;;;20.47;48.77;100713.56;4966449;28;4338;-68
2022/05/30 12:13:39;;;;;;;;;;;;;;;20.48;48.82;100720.06;4960489;28;4088;-66
2022/05/30 12:16:11;;;;;;;;;;;;;;;20.49;48.93;100713.66;4966331;28;4187;-69
2022/05/30 12:24:27;;;;;;;;;;;;;;;20.50;48.74;100708.63;4960777;28;4313;-67
2022/05/30 12:26:55;;;;;;;;;;;;;;;20.51;48.81;100713.72;4963789;28;4265;-67
2022/05/30 12:29:37;;;;;;;;;;;;;;;20.53;48.90;100720.97;4964705;28;4234;-63
2022/05/30 12:32:09;;;;;;;;;;;;;;;20.51;49.00;100725.25;4965105;28;4166;-67
2022/05/30 12:34:54;;;;;;;;;;;;;;;20.54;49.33;100725.34;4965226;28;4217;-64
2022/05/30 12:37:41;;;;;;;;;;;;;;;20.54;49.66;100722.44;4961147;28;4309;-66
2022/05/30 12:40:26;;;;;;;;;;;;;;;20.54;50.44;100722.44;4963798;28;4167;-67
2022/05/30 12:42:55;;;;;;;;;;;;;;;20.56;50.96;100725.41;4965660;28;4160;-67
2022/05/30 12:45:33;;;;;;;;;;;;;;;20.56;51.31;100725.41;4966821;28;4065;-65
2022/05/30 12:47:59;;;;;;;;;;;;;;;20.56;51.80;100726.19;4963251;28;4200;-66
2022/05/30 12:50:32;;;;;;;;;;;;;;;20.57;51.93;100721.16;4967016;28;4189;-66
2022/05/30 12:53:00;;;;;;;;;;;;;;;20.58;52.16;100717.66;4964987;28;4073;-66
2022/05/30 12:55:33;;;;;;;;;;;;;;;20.58;52.10;100729.16;4964088;28;4208;-67
2022/05/30 12:57:59;;;;;;;;;;;;;;;20.59;52.15;100729.88;4966324;28;4328;-67
2022/05/30 13:00:42;;;;;;;;;;;;;;;20.58;52.23;100722.66;4964706;28;4073;-67
2022/05/30 13:03:08;;;;;;;;;;;;;;;20.59;52.25;100718.38;4967847;28;5387;-67
2022/05/30 13:05:36;;;;;;;;;;;;;;;20.61;52.24;100727.09;4961896;28;4163;-66
2022/05/30 13:08:02;;;;;;;;;;;;;;;20.60;52.30;100719.88;4965910;28;4232;-67
2022/05/30 13:10:36;;;;;;;;;;;;;;;20.61;52.14;100730.72;4965494;28;4089;-66
2022/05/30 13:13:04;;;;;;;;;;;;;;;20.63;52.16;100718.56;4963368;28;4178;-67
2022/05/30 13:15:35;;;;;;;;;;;;;;;20.64;52.06;100715.03;4964111;28;4426;-66
2022/05/30 13:18:15;;;;;;;;;;;;;;;20.65;52.08;100712.91;4955968;28;4179;-66
2022/05/30 13:20:48;;;;;;;;;;;;;;;20.64;51.57;100725.81;4960396;28;4227;-66
2022/05/30 13:23:16;;;;;;;;;;;;;;;20.64;51.23;100731.56;4959742;28;4226;-68
2022/05/30 13:25:47;;;;;;;;;;;;;;;20.64;51.42;100720.78;4955729;28;4409;-67
2022/05/30 13:28:14;;;;;;;;;;;;;;;20.64;51.53;100726.53;4962859;28;4114;-67
2022/05/30 13:30:41;;;;;;;;;;;;;;;20.66;51.40;100728.75;4958722;28;4294;-65
2022/05/30 13:33:15;;;;;;;;;;;;;;;20.66;51.43;100741.03;4960395;28;4272;-66
2022/05/30 13:35:42;;;;;;;;;;;;;;;20.66;51.51;100734.50;4974350;28;4059;-67
2022/05/30 13:38:09;;;;;;;;;;;;;;;20.66;51.54;100734.50;4963141;28;4253;-66
2022/05/30 13:40:35;;;;;;;;;;;;;;;20.66;51.63;100752.53;4953552;28;4161;-67
2022/05/30 13:43:03;;;;;;;;;;;;;;;20.67;51.60;100741.75;4958013;28;4108;-67
2022/05/30 13:45:49;;;;;;;;;;;;;;;20.67;51.61;100744.63;4955206;28;4221;-66
2022/05/30 13:48:17;;;;;;;;;;;;;;;20.66;51.63;100746.78;4962935;28;4260;-67
2022/05/30 13:50:53;;;;;;;;;;;;;;;20.66;51.66;100746.78;4957649;28;4279;-67
2022/05/30 13:53:20;;;;;;;;;;;;;;;20.67;51.84;100753.28;4963731;28;4235;-67